Time;durP1;ratioP1;P1;durP2;ratioP2;P2;SDS_P1;SDS_P2;PMS_P1;PMS_P2;Temp;Humidity;BMP_temperature;BMP_pressure;BME280_temperature;BME280_humidity;BME280_pressure;Samples;Min_cycle;Max_cycle;Signal;HPM_P1;HPM_P2
2021/06/02 00:00:51;;;;;;;3.10;1.37;;;;;;;;;;367613;146;861209;-58
2021/06/02 00:01:56;;;;;;;4.83;1.34;;;;;;;;;;362380;145;863549;-58
2021/06/02 00:02:59;;;;;;;6.51;1.44;;;;;;;;;;367034;146;857122;-58
2021/06/02 00:04:01;;;;;;;4.99;1.23;;;;;;;;;;361296;146;856593;-58
2021/06/02 00:05:03;;;;;;;3.01;1.13;;;;;;;;;;363033;148;856474;-58
2021/06/02 00:06:05;;;;;;;3.83;1.68;;;;;;;;;;362806;148;856335;-58
2021/06/02 00:07:09;;;;;;;2.74;1.47;;;;;;;;;;360206;145;856716;-58
2021/06/02 00:08:10;;;;;;;2.94;1.79;;;;;;;;;;362784;148;863778;-58
2021/06/02 00:09:12;;;;;;;5.22;1.49;;;;;;;;;;354902;148;857051;-58
2021/06/02 00:10:14;;;;;;;10.65;1.64;;;;;;;;;;355974;148;856141;-58
2021/06/02 00:13:09;;;;;;;6.66;1.37;;;;;;;12.63;47.39;99954.83;370704;142;867943;-57
2021/06/02 00:14:11;;;;;;;5.22;1.64;;;;;;;12.58;47.45;99961.84;354992;148;859372;-58
2021/06/02 00:15:14;;;;;;;3.24;1.39;;;;;;;12.56;47.41;99956.69;360143;147;865210;-57
2021/06/02 00:16:17;;;;;;;2.64;1.39;;;;;;;12.61;47.53;99956.59;364575;147;864511;-58
2021/06/02 00:17:19;;;;;;;3.14;1.49;;;;;;;12.66;47.50;99954.78;365595;145;859397;-58
2021/06/02 00:18:21;;;;;;;4.60;1.61;;;;;;;12.69;47.23;99954.73;367456;145;857238;-57
2021/06/02 00:19:22;;;;;;;3.36;1.34;;;;;;;;;;363870;147;865801;-57
2021/06/02 00:20:24;;;;;;;2.71;1.39;;;;;;;;;;365988;145;865480;-57
2021/06/02 00:21:27;;;;;;;2.71;1.38;;;;;;;;;;365385;146;858237;-59
2021/06/02 00:22:28;;;;;;;3.61;1.66;;;;;;;;;;364704;145;864884;-57
2021/06/02 00:23:30;;;;;;;2.25;1.19;;;;;;;;;;362773;145;859140;-57
2021/06/02 00:24:31;;;;;;;5.31;1.93;;;;;;;;;;362204;148;865312;-59
2021/06/02 00:25:33;;;;;;;1.86;1.41;;;;;;;;;;363177;145;865760;-57
2021/06/02 00:26:37;;;;;;;3.08;1.55;;;;;;;;;;363013;144;858798;-58
2021/06/02 00:27:39;;;;;;;3.90;1.39;;;;;;;;;;360713;147;857265;-57
2021/06/02 00:28:41;;;;;;;10.47;1.64;;;;;;;;;;364217;145;858974;-58
2021/06/02 00:29:46;;;;;;;3.06;1.46;;;;;;;;;;362099;147;858890;-58
2021/06/02 00:30:48;;;;;;;2.50;1.49;;;;;;;;;;363226;145;858483;-58
2021/06/02 00:31:49;;;;;;;4.34;1.45;;;;;;;;;;365378;147;864880;-57
2021/06/02 00:32:51;;;;;;;7.12;2.03;;;;;;;;;;363846;147;865904;-57
2021/06/02 00:33:54;;;;;;;3.12;1.46;;;;;;;;;;365806;144;864942;-58
2021/06/02 00:34:55;;;;;;;1.80;1.39;;;;;;;;;;365676;147;864514;-58
2021/06/02 00:35:57;;;;;;;4.36;1.45;;;;;;;;;;362126;149;857726;-58
2021/06/02 00:36:59;;;;;;;5.98;1.61;;;;;;;;;;364681;145;866787;-58
2021/06/02 00:38:01;;;;;;;3.03;1.45;;;;;;;;;;364499;147;859178;-58
2021/06/02 00:39:03;;;;;;;3.61;1.78;;;;;;;;;;362979;145;858608;-58
2021/06/02 00:40:06;;;;;;;3.83;1.39;;;;;;;;;;360578;147;857447;-57
2021/06/02 00:41:08;;;;;;;2.26;1.31;;;;;;;;;;362842;147;857135;-57
2021/06/02 00:42:10;;;;;;;6.50;1.55;;;;;;;;;;362106;145;857267;-58
2021/06/02 00:43:14;;;;;;;4.40;2.09;;;;;;;;;;362732;147;858897;-57
2021/06/02 00:44:15;;;;;;;2.21;1.35;;;;;;;;;;363183;145;859139;-59
2021/06/02 00:45:17;;;;;;;3.86;1.33;;;;;;;;;;361240;145;857350;-58
2021/06/02 00:46:22;;;;;;;4.02;1.77;;;;;;;;;;365869;147;857290;-58
2021/06/02 00:47:24;;;;;;;2.66;1.49;;;;;;;;;;364010;145;857551;-58
2021/06/02 00:48:25;;;;;;;2.28;1.46;;;;;;;;;;362314;147;859457;-57
2021/06/02 00:49:27;;;;;;;3.52;1.44;;;;;;;;;;359486;149;865732;-58
2021/06/02 00:50:30;;;;;;;4.15;1.51;;;;;;;;;;364538;145;860099;-58
2021/06/02 00:51:32;;;;;;;6.84;1.57;;;;;;;;;;363709;144;858372;-57
2021/06/02 00:52:34;;;;;;;3.59;1.42;;;;;;;;;;363020;145;857215;-57
2021/06/02 00:53:36;;;;;;;3.26;1.56;;;;;;;;;;359270;150;858980;-58
2021/06/02 00:54:38;;;;;;;2.76;1.69;;;;;;;;;;359385;149;857258;-57
2021/06/02 00:55:40;;;;;;;5.39;1.64;;;;;;;;;;366023;145;858665;-58
2021/06/02 00:56:42;;;;;;;5.11;1.51;;;;;;;;;;365718;147;864759;-58
2021/06/02 00:57:45;;;;;;;3.83;1.74;;;;;;;;;;364870;146;857480;-58
2021/06/02 00:58:47;;;;;;;3.65;1.52;;;;;;;;;;363204;146;858986;-58
2021/06/02 00:59:51;;;;;;;2.34;1.73;;;;;;;;;;359399;150;858881;-58
2021/06/02 01:00:53;;;;;;;2.62;1.43;;;;;;;;;;363557;145;865284;-57
2021/06/02 01:01:55;;;;;;;3.67;1.63;;;;;;;;;;364090;147;857205;-59
2021/06/02 01:02:56;;;;;;;3.54;1.89;;;;;;;;;;354476;148;858251;-57
2021/06/02 01:03:58;;;;;;;3.73;1.57;;;;;;;;;;357917;148;866465;-58
2021/06/02 01:05:00;;;;;;;5.67;1.76;;;;;;;;;;363052;147;857301;-58
2021/06/02 01:13:29;;;;;;;3.65;1.54;;;;;;;12.53;47.91;99928.17;372827;142;881313;-57
2021/06/02 01:14:31;;;;;;;4.47;1.70;;;;;;;12.45;47.95;99931.76;365459;146;859061;-57
2021/06/02 01:15:33;;;;;;;5.96;1.51;;;;;;;12.42;47.94;99927.48;365423;147;857301;-58
2021/06/02 01:16:37;;;;;;;5.27;1.94;;;;;;;12.42;47.94;99927.48;361488;147;864827;-58
2021/06/02 01:17:38;;;;;;;2.43;1.62;;;;;;;12.47;47.93;99917.87;364227;146;858688;-58
2021/06/02 01:18:40;;;;;;;2.39;1.55;;;;;;;12.49;47.92;99925.63;364778;147;859035;-57
2021/06/02 01:19:43;;;;;;;3.58;1.78;;;;;;;12.46;47.80;99926.55;363353;147;857229;-57
2021/06/02 01:20:45;;;;;;;4.87;2.05;;;;;;;12.50;47.94;99923.02;360091;147;857325;-58
2021/06/02 01:21:56;;;;;;;4.05;1.99;;;;;;;12.48;48.06;99921.32;363358;147;865018;-57
2021/06/02 01:22:57;;;;;;;4.35;1.87;;;;;;;12.37;48.18;99922.35;358823;146;857739;-58
2021/06/02 01:24:00;;;;;;;5.47;1.96;;;;;;;12.34;48.25;99918.96;362274;147;857355;-58
2021/06/02 01:25:05;;;;;;;5.94;1.89;;;;;;;12.35;48.37;99918.92;362700;146;857466;-58
2021/06/02 01:26:08;;;;;;;6.96;2.24;;;;;;;12.32;48.48;99918.13;361832;147;864998;-57
2021/06/02 01:27:11;;;;;;;3.56;1.75;;;;;;;12.27;48.47;99912.99;366274;147;857203;-57
2021/06/02 01:28:13;;;;;;;3.54;1.61;;;;;;;12.27;48.37;99918.19;364995;146;858640;-57
2021/06/02 01:29:14;;;;;;;3.94;1.86;;;;;;;12.26;48.61;99925.13;364941;147;858677;-57
2021/06/02 01:30:19;;;;;;;4.09;1.64;;;;;;;12.23;48.74;99925.17;359765;147;864807;-57
2021/06/02 01:31:48;;;;;;;4.44;1.70;;;;;;;12.27;48.53;99912.99;364902;147;857176;-58
2021/06/02 01:33:09;;;;;;;3.58;1.94;;;;;;;12.25;48.66;99915.63;362375;147;864942;-58
2021/06/02 01:34:25;;;;;;;4.79;1.76;;;;;;;;;;356960;149;857173;-58
2021/06/02 01:35:47;;;;;;;6.13;1.99;;;;;;;;;;360768;147;858709;-59
2021/06/02 01:36:51;;;;;;;4.40;1.54;;;;;;;;;;360528;148;857735;-58
2021/06/02 01:38:11;;;;;;;5.25;2.14;;;;;;;;;;357046;147;857152;-59
2021/06/02 01:39:14;;;;;;;6.06;1.56;;;;;;;;;;362197;147;864882;-58
2021/06/02 01:40:31;;;;;;;4.33;1.70;;;;;;;;;;363581;148;864831;-58
2021/06/02 01:41:52;;;;;;;4.69;1.73;;;;;;;;;;362385;147;864891;-58
2021/06/02 01:43:07;;;;;;;4.14;2.00;;;;;;;;;;359449;148;858698;-58
2021/06/02 01:44:11;;;;;;;7.17;1.78;;;;;;;;;;360479;147;857736;-58
2021/06/02 01:45:15;;;;;;;4.23;1.53;;;;;;;;;;363278;148;857654;-58
2021/06/02 01:46:22;;;;;;;3.92;1.51;;;;;;;;;;340823;154;857539;-58
2021/06/02 01:47:25;;;;;;;5.86;1.81;;;;;;;;;;347635;151;857872;-58
2021/06/02 01:48:29;;;;;;;3.04;1.82;;;;;;;;;;362097;148;857348;-58
2021/06/02 01:49:49;;;;;;;4.01;1.65;;;;;;;;;;359677;147;857248;-58
2021/06/02 01:51:10;;;;;;;4.52;1.68;;;;;;;;;;361838;148;857798;-58
2021/06/02 01:52:13;;;;;;;5.38;1.60;;;;;;;;;;359540;147;857682;-58
2021/06/02 01:53:17;;;;;;;2.91;1.70;;;;;;;;;;336863;156;864905;-58
2021/06/02 01:54:37;;;;;;;3.84;1.69;;;;;;;;;;350201;147;864741;-58
2021/06/02 01:55:53;;;;;;;4.75;1.60;;;;;;;;;;356384;148;857283;-59
2021/06/02 01:57:14;;;;;;;3.36;1.41;;;;;;;;;;361759;147;860050;-58
2021/06/02 01:58:35;;;;;;;2.64;1.46;;;;;;;;;;362665;147;859476;-59
2021/06/02 01:59:50;;;;;;;3.42;1.73;;;;;;;;;;363306;147;857384;-58
2021/06/02 02:01:06;;;;;;;3.83;1.86;;;;;;;;;;355269;150;859054;-58
2021/06/02 02:02:28;;;;;;;7.17;1.71;;;;;;;;;;343489;156;859081;-58
2021/06/02 02:03:41;;;;;;;3.17;1.58;;;;;;;;;;355127;148;857714;-59
2021/06/02 02:04:47;;;;;;;3.63;1.90;;;;;;;;;;362323;148;857281;-58
2021/06/02 02:06:09;;;;;;;6.11;1.71;;;;;;;;;;359569;147;859207;-58
2021/06/02 02:07:13;;;;;;;3.12;1.53;;;;;;;;;;340067;158;859501;-59
2021/06/02 02:08:29;;;;;;;3.21;1.62;;;;;;;;;;344080;153;859656;-59
2021/06/02 02:09:51;;;;;;;5.93;1.93;;;;;;;;;;345361;155;859184;-58
2021/06/02 02:10:55;;;;;;;3.95;1.64;;;;;;;;;;346138;154;857313;-58
2021/06/02 02:11:58;;;;;;;4.68;1.79;;;;;;;;;;343567;155;857856;-58
2021/06/02 02:13:17;;;;;;;3.69;1.62;;;;;;;;;;348500;150;857529;-58
2021/06/02 02:14:39;;;;;;;3.79;1.52;;;;;;;;;;362390;147;857467;-56
2021/06/02 02:15:55;;;;;;;7.54;2.08;;;;;;;;;;341364;157;858528;-58
2021/06/02 02:17:07;;;;;;;2.46;1.67;;;;;;;;;;336139;156;857399;-57
2021/06/02 02:18:26;;;;;;;2.74;1.59;;;;;;;;;;334999;155;857531;-57
2021/06/02 02:19:33;;;;;;;4.03;1.93;;;;;;;;;;336622;155;857821;-57
2021/06/02 02:20:53;;;;;;;4.77;1.90;;;;;;;;;;340474;157;859119;-57
2021/06/02 02:21:56;;;;;;;2.12;1.51;;;;;;;;;;354181;147;857388;-57
2021/06/02 02:23:17;;;;;;;4.22;1.75;;;;;;;;;;362803;147;865041;-58
2021/06/02 02:24:26;;;;;;;3.05;1.66;;;;;;;;;;359586;148;860042;-58
2021/06/02 02:25:39;;;;;;;2.74;1.38;;;;;;;;;;359896;148;865064;-58
2021/06/02 02:26:45;;;;;;;2.86;1.81;;;;;;;;;;363311;148;858106;-57
2021/06/02 02:28:01;;;;;;;2.99;2.04;;;;;;;;;;358180;147;859079;-56
2021/06/02 02:29:05;;;;;;;7.24;2.26;;;;;;;;;;355191;151;857483;-57
2021/06/02 02:30:12;;;;;;;2.28;1.54;;;;;;;;;;358986;147;858634;-56
2021/06/02 02:31:32;;;;;;;5.79;1.98;;;;;;;;;;356769;148;859694;-56
2021/06/02 02:32:53;;;;;;;4.11;1.97;;;;;;;;;;361816;147;858548;-57
2021/06/02 02:34:13;;;;;;;7.39;1.86;;;;;;;;;;358972;147;864800;-56
2021/06/02 02:35:17;;;;;;;4.17;1.81;;;;;;;;;;358436;147;858489;-57
2021/06/02 02:36:22;;;;;;;5.10;1.76;;;;;;;;;;341349;155;865867;-56
2021/06/02 02:37:26;;;;;;;6.96;1.74;;;;;;;;;;347987;150;857502;-56
2021/06/02 02:38:29;;;;;;;3.84;1.39;;;;;;;;;;359678;147;857296;-57
2021/06/02 02:39:35;;;;;;;6.70;1.70;;;;;;;;;;354652;148;857161;-57
2021/06/02 02:40:56;;;;;;;4.88;1.55;;;;;;;;;;360293;147;858159;-57
2021/06/02 02:41:57;;;;;;;;;;;;;;;;;;352904;151;856694;-56
2021/06/02 02:43:01;;;;;;;3.09;1.61;;;;;;;;;;350905;151;857384;-58
2021/06/02 02:44:07;;;;;;;3.38;1.76;;;;;;;;;;358831;147;857630;-58
2021/06/02 02:45:11;;;;;;;3.29;1.44;;;;;;;;;;356652;148;864862;-57
2021/06/02 02:46:21;;;;;;;2.67;1.72;;;;;;;;;;360752;147;857262;-58
2021/06/02 02:47:33;;;;;;;2.95;1.76;;;;;;;;;;361801;148;864501;-58
2021/06/02 02:48:53;;;;;;;2.61;1.54;;;;;;;;;;361826;148;857634;-58
2021/06/02 02:50:10;;;;;;;3.34;1.89;;;;;;;;;;359403;148;858268;-59
2021/06/02 02:51:19;;;;;;;3.46;1.61;;;;;;;;;;342213;155;866635;-58
2021/06/02 02:52:28;;;;;;;3.53;1.55;;;;;;;;;;351817;148;860084;-59
2021/06/02 02:53:38;;;;;;;4.44;1.59;;;;;;;;;;358354;148;857735;-59
2021/06/02 02:54:58;;;;;;;9.52;1.60;;;;;;;;;;360200;147;859000;-58
2021/06/02 02:56:01;;;;;;;7.12;1.66;;;;;;;;;;362227;148;857508;-58
2021/06/02 02:57:17;;;;;;;2.09;1.59;;;;;;;;;;361271;147;859425;-58
2021/06/02 02:58:20;;;;;;;3.53;1.34;;;;;;;;;;361086;148;858669;-58
2021/06/02 02:59:27;;;;;;;4.02;1.70;;;;;;;;;;358886;147;857188;-57
2021/06/02 03:00:31;;;;;;;4.64;1.44;;;;;;;;;;359209;147;856275;-58
2021/06/02 03:01:47;;;;;;;5.42;1.38;;;;;;;;;;346630;148;857254;-56
2021/06/02 03:02:51;;;;;;;5.33;1.52;;;;;;;;;;358498;147;856987;-57
2021/06/02 03:04:09;;;;;;;6.57;1.56;;;;;;;;;;358862;148;857170;-58
2021/06/02 03:05:12;;;;;;;2.61;1.31;;;;;;;;;;359961;147;857633;-58
2021/06/02 03:06:26;;;;;;;3.05;1.51;;;;;;;;;;359715;147;857315;-58
2021/06/02 03:07:29;;;;;;;3.32;1.67;;;;;;;;;;357455;148;857395;-57
2021/06/02 03:08:33;;;;;;;4.14;1.77;;;;;;;;;;359835;147;857238;-57
2021/06/02 03:09:42;;;;;;;7.51;1.59;;;;;;;;;;360682;148;858693;-55
2021/06/02 03:10:51;;;;;;;4.34;1.99;;;;;;;;;;352620;150;857172;-56
2021/06/02 03:11:55;;;;;;;2.49;1.42;;;;;;;;;;352678;150;859103;-57
2021/06/02 03:13:04;;;;;;;2.56;1.69;;;;;;;;;;361135;148;858775;-59
2021/06/02 03:14:23;;;;;;;4.26;1.78;;;;;;;;;;360503;147;857310;-58
2021/06/02 03:15:44;;;;;;;1.84;1.41;;;;;;;;;;361817;148;857759;-58
2021/06/02 03:16:47;;;;;;;4.67;1.45;;;;;;;;;;357113;147;859108;-59
2021/06/02 03:17:54;;;;;;;5.40;1.74;;;;;;;;;;350245;150;858178;-59
2021/06/02 03:19:06;;;;;;;3.96;1.63;;;;;;;;;;356142;148;865904;-58
2021/06/02 03:20:20;;;;;;;4.06;1.52;;;;;;;;;;359833;147;859814;-59
2021/06/02 03:21:38;;;;;;;4.21;1.69;;;;;;;;;;360120;148;857620;-58
2021/06/02 03:22:44;;;;;;;3.19;1.48;;;;;;;;;;360764;147;858787;-61
2021/06/02 03:24:05;;;;;;;5.88;1.89;;;;;;;;;;354741;147;860037;-59
2021/06/02 03:25:06;;;;;;;;;;;;;;;;;;364225;147;858492;-58
2021/06/02 03:26:12;;;;;;;4.61;2.36;;;;;;;;;;361685;148;857199;-58
2021/06/02 03:27:15;;;;;;;5.72;1.94;;;;;;;;;;361606;148;857892;-57
2021/06/02 03:28:31;;;;;;;7.48;1.43;;;;;;;;;;359572;147;858188;-58
2021/06/02 03:29:35;;;;;;;5.16;1.82;;;;;;;;;;359124;148;857645;-58
2021/06/02 03:30:38;;;;;;;4.32;1.84;;;;;;;;;;346323;151;859721;-59
2021/06/02 03:31:50;;;;;;;4.01;1.76;;;;;;;;;;357143;148;858318;-59
2021/06/02 03:32:54;;;;;;;4.74;1.85;;;;;;;;;;363042;148;860423;-58
2021/06/02 03:33:57;;;;;;;4.55;1.71;;;;;;;;;;359374;147;858879;-58
2021/06/02 03:35:01;;;;;;;6.28;1.72;;;;;;;;;;358036;149;857368;-60
2021/06/02 03:36:14;;;;;;;4.43;1.82;;;;;;;;;;360073;148;857852;-59
2021/06/02 03:37:34;;;;;;;2.43;1.39;;;;;;;;;;358985;147;857775;-59
2021/06/02 03:38:44;;;;;;;4.00;1.49;;;;;;;;;;357745;148;859130;-60
2021/06/02 03:39:47;;;;;;;3.99;1.82;;;;;;;;;;360026;147;859359;-59
2021/06/02 03:40:57;;;;;;;2.96;1.82;;;;;;;;;;360474;148;858748;-56
2021/06/02 03:42:04;;;;;;;2.59;1.52;;;;;;;;;;362497;147;857243;-57
2021/06/02 03:43:08;;;;;;;7.56;1.71;;;;;;;;;;360418;147;857814;-56
2021/06/02 03:44:24;;;;;;;5.27;1.76;;;;;;;;;;359234;148;857669;-58
2021/06/02 03:45:27;;;;;;;3.74;1.78;;;;;;;;;;361208;147;866917;-57
2021/06/02 03:46:31;;;;;;;6.66;1.87;;;;;;;;;;360174;148;857367;-57
2021/06/02 03:47:52;;;;;;;4.21;1.90;;;;;;;;;;359802;147;857243;-56
2021/06/02 03:48:56;;;;;;;4.06;1.76;;;;;;;;;;360545;147;857075;-56
2021/06/02 03:49:59;;;;;;;3.34;1.56;;;;;;;;;;360715;148;857327;-55
2021/06/02 03:51:03;;;;;;;5.76;1.89;;;;;;;;;;358388;147;857435;-58
2021/06/02 03:52:06;;;;;;;5.39;1.74;;;;;;;;;;360360;148;865802;-57
2021/06/02 03:53:13;;;;;;;6.12;1.88;;;;;;;;;;362451;147;857803;-58
2021/06/02 03:54:16;;;;;;;2.86;1.47;;;;;;;;;;361423;147;857469;-59
2021/06/02 03:55:26;;;;;;;3.16;1.57;;;;;;;;;;357748;148;857694;-66
2021/06/02 03:56:43;;;;;;;3.60;1.74;;;;;;;;;;359970;147;865141;-60
2021/06/02 03:57:47;;;;;;;5.02;1.69;;;;;;;;;;360867;148;857225;-58
2021/06/02 03:58:50;;;;;;;2.99;1.61;;;;;;;;;;351076;148;857241;-58
2021/06/02 04:00:00;;;;;;;2.52;1.46;;;;;;;;;;358258;147;857290;-58
2021/06/02 04:01:22;;;;;;;2.40;1.81;;;;;;;;;;359719;148;857419;-57
2021/06/02 04:02:28;;;;;;;5.22;1.76;;;;;;;;;;340030;155;857249;-57
2021/06/02 04:03:32;;;;;;;4.01;1.79;;;;;;;;;;341670;154;858018;-57
2021/06/02 04:04:35;;;;;;;2.84;1.79;;;;;;;;;;340263;154;857589;-57
2021/06/02 04:05:41;;;;;;;3.44;1.69;;;;;;;;;;339098;155;857491;-55
2021/06/02 04:06:45;;;;;;;5.02;1.94;;;;;;;;;;341400;154;857929;-55
2021/06/02 04:08:07;;;;;;;3.89;1.74;;;;;;;;;;340689;154;857892;-55
2021/06/02 04:09:11;;;;;;;6.14;1.86;;;;;;;;;;359071;147;866730;-55
2021/06/02 04:10:13;;;;;;;3.75;1.63;;;;;;;;;;359349;147;857368;-56
2021/06/02 04:11:17;;;;;;;5.16;1.93;;;;;;;;;;357267;148;859221;-59
2021/06/02 04:12:21;;;;;;;5.81;1.66;;;;;;;;;;360119;148;857845;-57
2021/06/02 04:13:24;;;;;;;3.80;1.71;;;;;;;;;;358908;147;857292;-54
2021/06/02 04:14:34;;;;;;;7.33;1.84;;;;;;;;;;361569;147;857612;-55
2021/06/02 04:15:36;;;;;;;2.54;1.68;;;;;;;;;;355418;150;858999;-54
2021/06/02 04:16:40;;;;;;;3.65;1.82;;;;;;;;;;360265;147;858052;-55
2021/06/02 04:17:43;;;;;;;3.95;1.68;;;;;;;;;;361264;148;858124;-56
2021/06/02 04:18:47;;;;;;;7.14;1.81;;;;;;;;;;360358;147;859924;-55
2021/06/02 04:19:50;;;;;;;3.31;1.87;;;;;;;;;;360584;147;857238;-56
2021/06/02 04:20:52;;;;;;;4.83;1.69;;;;;;;;;;358254;149;860888;-55
2021/06/02 04:21:55;;;;;;;3.30;1.46;;;;;;;;;;359339;147;866471;-55
2021/06/02 04:22:56;;;;;;;6.99;2.03;;;;;;;;;;361849;147;866012;-56
2021/06/02 04:23:58;;;;;;;3.58;1.80;;;;;;;;;;360091;148;866710;-56
2021/06/02 04:25:01;;;;;;;4.34;1.50;;;;;;;;;;360254;147;859139;-55
2021/06/02 04:26:04;;;;;;;4.42;1.72;;;;;;;;;;361947;148;867445;-57
2021/06/02 04:27:06;;;;;;;3.54;1.64;;;;;;;;;;360871;148;857890;-55
2021/06/02 04:28:08;;;;;;;2.80;1.96;;;;;;;;;;359679;147;857883;-61
2021/06/02 04:29:10;;;;;;;5.61;1.96;;;;;;;;;;362775;148;857151;-56
2021/06/02 04:30:14;;;;;;;4.32;1.61;;;;;;;;;;362546;147;857223;-55
2021/06/02 04:31:15;;;;;;;4.52;1.66;;;;;;;;;;356859;147;858654;-56
2021/06/02 04:32:17;;;;;;;3.61;2.01;;;;;;;;;;356075;148;865726;-54
2021/06/02 04:33:19;;;;;;;6.50;1.95;;;;;;;;;;362252;147;857370;-56
2021/06/02 04:34:21;;;;;;;10.69;1.79;;;;;;;;;;359771;148;864813;-55
2021/06/02 04:35:22;;;;;;;3.98;1.81;;;;;;;;;;357916;148;859300;-55
2021/06/02 04:36:26;;;;;;;4.86;1.79;;;;;;;;;;360576;147;859894;-55
2021/06/02 04:37:27;;;;;;;3.66;1.89;;;;;;;;;;360767;148;857719;-55
2021/06/02 04:38:29;;;;;;;2.76;1.46;;;;;;;;;;359593;147;864840;-55
2021/06/02 04:39:31;;;;;;;5.73;1.72;;;;;;;;;;358767;147;857321;-55
2021/06/02 04:40:33;;;;;;;4.99;1.85;;;;;;;;;;361378;148;857446;-55
2021/06/02 04:41:35;;;;;;;8.23;1.78;;;;;;;;;;361160;147;857389;-57
2021/06/02 04:42:38;;;;;;;4.59;1.64;;;;;;;;;;361817;147;857220;-56
2021/06/02 04:43:39;;;;;;;3.97;1.58;;;;;;;;;;359405;148;866503;-57
2021/06/02 04:44:41;;;;;;;3.27;1.77;;;;;;;;;;360827;147;857179;-57
2021/06/02 04:45:44;;;;;;;3.75;1.96;;;;;;;;;;360614;147;864636;-56
2021/06/02 04:46:47;;;;;;;3.90;1.81;;;;;;;;;;357104;148;865776;-56
2021/06/02 04:47:48;;;;;;;5.47;1.71;;;;;;;;;;361292;147;857202;-56
2021/06/02 04:48:50;;;;;;;8.04;1.85;;;;;;;;;;359446;147;857750;-55
2021/06/02 04:49:54;;;;;;;7.64;1.89;;;;;;;;;;360462;147;867232;-59
2021/06/02 04:51:01;;;;;;;4.18;1.88;;;;;;;;;;361144;148;857741;-57
2021/06/02 04:52:07;;;;;;;2.93;1.31;;;;;;;;;;361556;147;859104;-61
2021/06/02 04:53:22;;;;;;;3.45;1.69;;;;;;;;;;358776;147;857877;-57
2021/06/02 04:54:29;;;;;;;4.52;1.98;;;;;;;;;;361313;148;858624;-59
2021/06/02 04:55:42;;;;;;;5.37;1.53;;;;;;;;;;359063;148;857336;-60
2021/06/02 04:57:02;;;;;;;5.06;1.96;;;;;;;;;;361890;147;858612;-60
2021/06/02 04:58:06;;;;;;;5.41;1.85;;;;;;;;;;357726;148;857798;-62
2021/06/02 04:59:09;;;;;;;8.00;1.73;;;;;;;;;;361035;147;857633;-64
2021/06/02 05:00:30;;;;;;;5.03;1.84;;;;;;;;;;339792;155;858948;-60
2021/06/02 05:01:40;;;;;;;4.14;1.63;;;;;;;;;;354650;147;857287;-62
2021/06/02 05:03:00;;;;;;;4.82;1.77;;;;;;;;;;343565;154;857575;-59
2021/06/02 05:04:20;;;;;;;4.36;1.64;;;;;;;;;;359184;148;857360;-57
2021/06/02 05:05:22;;;;;;;;;;;;;;;;;;362300;147;858660;-58
2021/06/02 05:06:43;;;;;;;3.46;1.53;;;;;;;;;;361378;147;858319;-57
2021/06/02 05:07:53;;;;;;;5.74;1.82;;;;;;;;;;360543;147;857307;-56
2021/06/02 05:09:13;;;;;;;6.78;1.99;;;;;;;;;;359515;148;857910;-60
2021/06/02 05:10:28;;;;;;;3.33;1.69;;;;;;;;;;359644;147;858300;-58
2021/06/02 05:11:50;;;;;;;5.37;1.68;;;;;;;;;;357201;148;858306;-58
2021/06/02 05:12:53;;;;;;;7.65;1.93;;;;;;;;;;360736;147;857179;-59
2021/06/02 05:14:14;;;;;;;4.08;1.86;;;;;;;;;;360224;147;859137;-59
2021/06/02 05:15:33;;;;;;;5.47;1.69;;;;;;;;;;359790;148;857426;-60
2021/06/02 05:16:54;;;;;;;4.64;2.03;;;;;;;;;;359739;147;857738;-60
2021/06/02 05:18:08;;;;;;;4.97;1.76;;;;;;;;;;360890;148;857378;-58
2021/06/02 05:19:47;;;;;;;4.17;1.88;;;;;;;;;;359917;147;857842;-60
2021/06/02 05:22:07;;;;;;;4.27;1.60;;;;;;;;;;360699;147;857795;-59
2021/06/02 05:23:28;;;;;;;4.09;1.61;;;;;;;;;;361925;147;857382;-58
2021/06/02 05:24:31;;;;;;;7.82;2.02;;;;;;;;;;363339;147;857882;-59
2021/06/02 05:25:38;;;;;;;4.18;1.78;;;;;;;;;;360445;147;857263;-59
2021/06/02 05:26:58;;;;;;;4.79;1.67;;;;;;;;;;357096;149;857393;-59
2021/06/02 05:28:00;;;;;;;;;;;;;;;;;;364116;148;857614;-60
2021/06/02 05:29:15;;;;;;;4.54;1.56;;;;;;;;;;362608;148;857983;-59
2021/06/02 05:30:26;;;;;;;3.89;1.73;;;;;;;;;;361586;147;858338;-59
2021/06/02 05:31:29;;;;;;;4.76;1.86;;;;;;;;;;356292;148;857446;-59
2021/06/02 05:32:42;;;;;;;2.97;1.86;;;;;;;;;;359187;149;857224;-59
2021/06/02 05:33:45;;;;;;;2.52;1.61;;;;;;;;;;357972;148;859018;-59
2021/06/02 05:35:01;;;;;;;4.35;1.69;;;;;;;;;;357776;148;857228;-59
2021/06/02 05:36:21;;;;;;;5.45;2.01;;;;;;;;;;361518;147;860609;-59
2021/06/02 05:37:24;;;;;;;8.78;1.82;;;;;;;;;;362977;148;857196;-58
2021/06/02 05:38:45;;;;;;;2.04;1.50;;;;;;;;;;360956;148;864828;-59
2021/06/02 05:39:55;;;;;;;2.63;1.38;;;;;;;;;;361781;148;857110;-60
2021/06/02 05:41:17;;;;;;;3.78;1.68;;;;;;;;;;362052;148;858645;-59
2021/06/02 05:42:27;;;;;;;5.07;1.48;;;;;;;;;;360297;148;859798;-60
2021/06/02 05:43:47;;;;;;;2.86;1.50;;;;;;;;;;361160;148;857244;-59
2021/06/02 05:45:07;;;;;;;4.36;1.70;;;;;;;;;;360557;147;857747;-58
2021/06/02 05:46:21;;;;;;;5.57;1.54;;;;;;;;;;362076;148;858769;-58
2021/06/02 05:47:41;;;;;;;3.67;1.88;;;;;;;;;;359972;147;857243;-58
2021/06/02 05:48:57;;;;;;;6.13;1.63;;;;;;;;;;359893;148;857263;-58
2021/06/02 05:50:17;;;;;;;2.34;1.51;;;;;;;;;;358590;147;857331;-59
2021/06/02 05:51:27;;;;;;;3.72;1.53;;;;;;;;;;360220;148;857985;-58
2021/06/02 05:52:47;;;;;;;5.22;1.75;;;;;;;;;;357817;147;857346;-59
2021/06/02 05:53:49;;;;;;;;;;;;;;;;;;362842;147;857226;-59
2021/06/02 05:55:09;;;;;;;3.40;1.76;;;;;;;;;;355344;148;857221;-59
2021/06/02 05:56:30;;;;;;;3.65;1.61;;;;;;;;;;360355;147;859868;-59
2021/06/02 05:57:50;;;;;;;4.92;1.67;;;;;;;;;;360695;148;857347;-59
2021/06/02 05:58:57;;;;;;;3.10;1.72;;;;;;;;;;361763;147;859850;-59
2021/06/02 06:00:03;;;;;;;4.71;1.69;;;;;;;;;;360171;148;858314;-59
2021/06/02 06:01:23;;;;;;;4.18;1.76;;;;;;;;;;358588;148;859207;-58
2021/06/02 06:02:25;;;;;;;;;;;;;;;;;;363231;147;856637;-58
2021/06/02 06:03:28;;;;;;;6.13;1.79;;;;;;;;;;356977;149;857302;-58
2021/06/02 06:04:44;;;;;;;3.42;1.67;;;;;;;;;;360331;147;857333;-59
2021/06/02 06:05:50;;;;;;;4.02;1.74;;;;;;;;;;359073;148;857860;-59
2021/06/02 06:07:06;;;;;;;2.93;1.52;;;;;;;;;;358506;147;858966;-59
2021/06/02 06:08:16;;;;;;;6.45;1.76;;;;;;;;;;359582;148;856711;-58
2021/06/02 06:09:36;;;;;;;7.24;1.66;;;;;;;;;;359493;148;858916;-58
2021/06/02 06:10:56;;;;;;;2.70;1.39;;;;;;;;;;360850;147;858665;-57
2021/06/02 06:12:12;;;;;;;2.79;1.66;;;;;;;;;;359068;148;857371;-58
2021/06/02 06:13:28;;;;;;;5.53;1.73;;;;;;;;;;360217;147;856443;-58
2021/06/02 06:14:31;;;;;;;5.53;1.54;;;;;;;;;;359360;148;857729;-59
2021/06/02 06:15:35;;;;;;;5.16;1.79;;;;;;;;;;359794;147;858945;-58
2021/06/02 06:16:51;;;;;;;4.02;1.65;;;;;;;;;;359476;147;859514;-58
2021/06/02 06:17:54;;;;;;;4.18;1.63;;;;;;;;;;358169;147;859576;-60
2021/06/02 06:19:04;;;;;;;4.78;1.71;;;;;;;;;;359040;147;857284;-59
2021/06/02 06:20:25;;;;;;;2.66;1.35;;;;;;;;;;356230;148;859504;-57
2021/06/02 06:21:46;;;;;;;6.02;1.64;;;;;;;;;;360228;147;858196;-60
2021/06/02 06:22:52;;;;;;;5.86;1.66;;;;;;;;;;356931;148;857809;-58
2021/06/02 06:24:01;;;;;;;2.86;1.58;;;;;;;;;;358187;147;864759;-59
2021/06/02 06:25:19;;;;;;;3.12;1.44;;;;;;;;;;359158;147;857430;-57
2021/06/02 06:26:34;;;;;;;3.79;1.74;;;;;;;;;;359583;147;857744;-58
2021/06/02 06:27:37;;;;;;;6.36;1.54;;;;;;;;;;358156;147;860001;-57
2021/06/02 06:28:41;;;;;;;3.17;1.46;;;;;;;;;;358377;148;859487;-58
2021/06/02 06:29:50;;;;;;;3.05;1.20;;;;;;;;;;344819;152;859354;-59
2021/06/02 06:30:52;;;;;;;3.48;1.48;;;;;;;;;;354483;151;858980;-59
2021/06/02 06:31:54;;;;;;;3.06;1.54;;;;;;;;;;342944;154;857724;-58
2021/06/02 06:32:58;;;;;;;4.98;1.36;;;;;;;;;;345003;154;865060;-60
2021/06/02 06:34:02;;;;;;;2.64;1.24;;;;;;;;;;345418;154;857589;-60
2021/06/02 06:35:04;;;;;;;10.81;1.55;;;;;;;;;;352728;151;857977;-58
2021/06/02 06:36:06;;;;;;;5.97;1.69;;;;;;;;;;346464;153;856942;-58
2021/06/02 06:37:07;;;;;;;3.76;1.53;;;;;;;;;;347162;154;858746;-58
2021/06/02 06:38:11;;;;;;;5.78;1.60;;;;;;;;;;342660;154;864471;-57
2021/06/02 06:39:18;;;;;;;4.35;1.72;;;;;;;;;;346124;153;857223;-56
2021/06/02 06:40:22;;;;;;;6.13;1.86;;;;;;;;;;342817;154;857410;-58
2021/06/02 06:41:24;;;;;;;3.61;1.60;;;;;;;;;;345733;154;858719;-57
2021/06/02 06:42:26;;;;;;;3.07;1.37;;;;;;;;;;345480;153;857279;-58
2021/06/02 06:43:28;;;;;;;2.25;1.39;;;;;;;;;;348570;151;857343;-58
2021/06/02 06:44:29;;;;;;;9.67;1.81;;;;;;;;;;347338;153;857442;-56
2021/06/02 06:45:34;;;;;;;16.69;1.46;;;;;;;;;;352666;149;859061;-56
2021/06/02 06:46:36;;;;;;;3.74;1.59;;;;;;;;;;360286;147;858241;-57